EZY704F LIRF-EGGD
Flight info
| Callsign | EZY704F |
|---|---|
| Flight time | N/A |
| Altitude | 36000 |
| Route | XENOL5AXPODOX9E/25 PODOX DCT TOBGA DCT DOBIM DCT PIGOS DCT BARSO DCT OKTET DCT GIPNO DCT BULOL DCT IDAVO DCT BAGBI DCT SIZZA DCT LAULY DCT BRY DCT CLM DCT KOPOR DCT KESAX DCT KUNAV T421 ICTAM |
| Aircraft | A21N/M-SDE2E3FGHIJ1RWXYZ/LB1G1 |
Departure
| Time | N/A |
|---|---|
| Airport | Rome–Fiumicino Leonardo da Vinci International Airport (LIRF) |
Arrival
| Time | 2026-05-03 22:15 |
|---|---|
| Airport | Bristol Airport (EGGD) |
| Time | Latitude | Longitude | Altitude | Speed | Heading |
|---|---|---|---|---|---|
| 2026-05-03 20:15 | 42.43778 | 10.47310 | 33857 ft | 411 kts | 311° |
| 2026-05-03 20:15 | 42.45778 | 10.44543 | 34135 ft | 411 kts | 311° |
| 2026-05-03 20:15 | 42.47772 | 10.41771 | 34198 ft | 410 kts | 311° |
| 2026-05-03 20:16 | 42.51092 | 10.37193 | 34189 ft | 410 kts | 311° |
| 2026-05-03 20:16 | 42.55067 | 10.31657 | 34175 ft | 410 kts | 311° |
| 2026-05-03 20:17 | 42.59681 | 10.25215 | 34168 ft | 409 kts | 311° |
| 2026-05-03 20:17 | 42.62997 | 10.20581 | 34169 ft | 409 kts | 311° |
| 2026-05-03 20:18 | 42.66967 | 10.15009 | 34172 ft | 412 kts | 310° |
| 2026-05-03 20:18 | 42.70962 | 10.09419 | 34164 ft | 412 kts | 310° |
| 2026-05-03 20:19 | 42.74926 | 10.03843 | 34160 ft | 412 kts | 310° |
| 2026-05-03 20:19 | 42.78913 | 9.98237 | 34162 ft | 412 kts | 310° |
| 2026-05-03 20:20 | 42.82902 | 9.92632 | 34155 ft | 412 kts | 310° |
| 2026-05-03 20:20 | 42.86886 | 9.87013 | 34154 ft | 412 kts | 310° |
| 2026-05-03 20:21 | 42.90899 | 9.81388 | 34153 ft | 418 kts | 310° |
| 2026-05-03 20:21 | 42.94790 | 9.75503 | 34148 ft | 416 kts | 302° |
| 2026-05-03 20:22 | 42.97355 | 9.68517 | 34149 ft | 411 kts | 289° |
| 2026-05-03 20:22 | 42.99440 | 9.61246 | 34139 ft | 411 kts | 289° |
| 2026-05-03 20:23 | 43.01547 | 9.53982 | 34144 ft | 411 kts | 289° |
| 2026-05-03 20:23 | 43.03659 | 9.46717 | 34140 ft | 412 kts | 289° |
| 2026-05-03 20:24 | 43.05781 | 9.39419 | 34151 ft | 414 kts | 289° |
| 2026-05-03 20:24 | 43.07908 | 9.32083 | 34143 ft | 415 kts | 289° |
| 2026-05-03 20:25 | 43.10031 | 9.24747 | 34128 ft | 414 kts | 289° |
| 2026-05-03 20:25 | 43.12141 | 9.17413 | 34131 ft | 414 kts | 289° |
| 2026-05-03 20:26 | 43.14237 | 9.10074 | 34131 ft | 414 kts | 289° |
| 2026-05-03 20:26 | 43.16336 | 9.02728 | 34130 ft | 414 kts | 288° |
| 2026-05-03 20:27 | 43.18436 | 8.95376 | 34130 ft | 415 kts | 288° |
| 2026-05-03 20:27 | 43.20532 | 8.88008 | 34134 ft | 414 kts | 288° |
| 2026-05-03 20:28 | 43.22609 | 8.80647 | 34133 ft | 414 kts | 288° |
| 2026-05-03 20:28 | 43.24701 | 8.73290 | 34135 ft | 414 kts | 288° |
| 2026-05-03 20:29 | 43.26783 | 8.65952 | 34138 ft | 416 kts | 288° |
| 2026-05-03 20:29 | 43.28866 | 8.58540 | 34136 ft | 416 kts | 288° |
| 2026-05-03 20:30 | 43.30944 | 8.51129 | 34136 ft | 416 kts | 288° |
| 2026-05-03 20:30 | 43.33023 | 8.43725 | 34142 ft | 415 kts | 288° |
| 2026-05-03 20:31 | 43.35106 | 8.36337 | 34139 ft | 414 kts | 288° |
| 2026-05-03 20:31 | 43.37173 | 8.28957 | 34143 ft | 414 kts | 287° |
| 2026-05-03 20:32 | 43.39219 | 8.21567 | 34145 ft | 413 kts | 287° |
| 2026-05-03 20:32 | 43.41268 | 8.14180 | 34140 ft | 413 kts | 287° |
| 2026-05-03 20:33 | 43.43310 | 8.06785 | 34144 ft | 413 kts | 287° |
| 2026-05-03 20:33 | 43.45343 | 7.99387 | 34145 ft | 413 kts | 287° |
| 2026-05-03 20:34 | 43.47368 | 7.91976 | 34149 ft | 415 kts | 287° |
| 2026-05-03 20:34 | 43.49399 | 7.84550 | 34140 ft | 415 kts | 287° |
| 2026-05-03 20:35 | 43.51431 | 7.77101 | 34144 ft | 415 kts | 287° |
| 2026-05-03 20:35 | 43.53455 | 7.69651 | 34140 ft | 415 kts | 287° |
| 2026-05-03 20:36 | 43.55470 | 7.62209 | 34135 ft | 414 kts | 287° |
| 2026-05-03 20:36 | 43.57465 | 7.54795 | 34139 ft | 415 kts | 287° |
| 2026-05-03 20:37 | 43.59485 | 7.47293 | 34142 ft | 415 kts | 287° |
| 2026-05-03 20:37 | 43.61699 | 7.39996 | 34138 ft | 419 kts | 296° |
| 2026-05-03 20:37 | 43.63431 | 7.36666 | 34140 ft | 426 kts | 307° |
| 2026-05-03 20:38 | 43.65644 | 7.33900 | 34146 ft | 434 kts | 319° |
| 2026-05-03 20:38 | 43.70664 | 7.29317 | 34144 ft | 436 kts | 322° |
| 2026-05-03 20:39 | 43.75748 | 7.24742 | 34142 ft | 436 kts | 322° |
| 2026-05-03 20:39 | 43.80838 | 7.20074 | 34152 ft | 436 kts | 321° |
| 2026-05-03 20:40 | 43.85851 | 7.15441 | 34149 ft | 437 kts | 321° |
| 2026-05-03 20:40 | 43.90907 | 7.10791 | 34150 ft | 436 kts | 321° |
| 2026-05-03 20:41 | 43.95956 | 7.06109 | 34155 ft | 436 kts | 321° |
| 2026-05-03 20:41 | 44.01002 | 7.01454 | 34156 ft | 436 kts | 321° |
| 2026-05-03 20:42 | 44.06057 | 6.96761 | 34154 ft | 437 kts | 321° |
| 2026-05-03 20:42 | 44.11116 | 6.92060 | 34158 ft | 437 kts | 321° |
| 2026-05-03 20:43 | 44.16170 | 6.87347 | 34158 ft | 437 kts | 321° |
| 2026-05-03 20:43 | 44.21223 | 6.82615 | 34157 ft | 438 kts | 321° |
| 2026-05-03 20:44 | 44.26292 | 6.77844 | 34148 ft | 441 kts | 321° |
| 2026-05-03 20:44 | 44.31373 | 6.73053 | 34140 ft | 441 kts | 321° |
| 2026-05-03 20:45 | 44.36468 | 6.68292 | 34131 ft | 440 kts | 321° |
| 2026-05-03 20:45 | 44.41537 | 6.63488 | 34138 ft | 440 kts | 321° |
| 2026-05-03 20:46 | 44.46594 | 6.58723 | 34140 ft | 435 kts | 321° |
| 2026-05-03 20:46 | 44.51603 | 6.53945 | 34130 ft | 435 kts | 321° |
| 2026-05-03 20:47 | 44.56573 | 6.49195 | 34125 ft | 436 kts | 321° |
| 2026-05-03 20:47 | 44.61595 | 6.44440 | 34137 ft | 436 kts | 321° |
| 2026-05-03 20:48 | 44.66624 | 6.39653 | 34128 ft | 437 kts | 321° |
| 2026-05-03 20:48 | 44.71641 | 6.34861 | 34118 ft | 436 kts | 321° |
| 2026-05-03 20:49 | 44.76671 | 6.30065 | 34120 ft | 436 kts | 321° |
| 2026-05-03 20:49 | 44.81683 | 6.25247 | 34116 ft | 436 kts | 321° |
| 2026-05-03 20:50 | 44.86695 | 6.20435 | 34108 ft | 436 kts | 322° |
| 2026-05-03 20:50 | 44.91722 | 6.15646 | 34102 ft | 436 kts | 321° |
| 2026-05-03 20:51 | 44.96731 | 6.10837 | 34107 ft | 436 kts | 321° |
| 2026-05-03 20:51 | 45.01750 | 6.05998 | 34093 ft | 437 kts | 321° |
| 2026-05-03 20:52 | 45.06764 | 6.01128 | 34091 ft | 437 kts | 321° |
| 2026-05-03 20:52 | 45.11779 | 5.96264 | 34060 ft | 435 kts | 321° |
| 2026-05-03 20:53 | 45.16772 | 5.91418 | 34055 ft | 436 kts | 321° |
| 2026-05-03 20:53 | 45.21771 | 5.86549 | 34065 ft | 435 kts | 321° |
| 2026-05-03 20:54 | 45.26758 | 5.81677 | 34054 ft | 435 kts | 321° |
| 2026-05-03 20:54 | 45.34270 | 5.74318 | 34056 ft | 439 kts | 321° |
| 2026-05-03 20:55 | 45.39299 | 5.69393 | 34051 ft | 439 kts | 320° |
| 2026-05-03 20:55 | 45.44313 | 5.64427 | 34065 ft | 439 kts | 320° |
| 2026-05-03 20:56 | 45.49323 | 5.59504 | 34067 ft | 437 kts | 320° |
| 2026-05-03 20:56 | 45.54326 | 5.54557 | 34067 ft | 437 kts | 320° |
| 2026-05-03 20:57 | 45.59435 | 5.49824 | 34063 ft | 439 kts | 323° |
| 2026-05-03 20:57 | 45.64624 | 5.45216 | 34066 ft | 441 kts | 322° |
| 2026-05-03 20:58 | 45.69803 | 5.40557 | 34051 ft | 439 kts | 322° |
| 2026-05-03 20:58 | 45.74997 | 5.35923 | 34047 ft | 439 kts | 322° |
| 2026-05-03 20:59 | 45.80175 | 5.31266 | 34045 ft | 439 kts | 322° |
| 2026-05-03 20:59 | 45.85349 | 5.26598 | 34061 ft | 439 kts | 322° |
| 2026-05-03 21:00 | 45.88764 | 5.23523 | 34046 ft | 436 kts | 322° |
| 2026-05-03 21:00 | 45.95631 | 5.17323 | 34038 ft | 436 kts | 322° |
| 2026-05-03 21:01 | 46.00753 | 5.12676 | 34035 ft | 437 kts | 322° |
| 2026-05-03 21:01 | 46.06031 | 5.08254 | 34037 ft | 444 kts | 330° |
| 2026-05-03 21:02 | 46.11684 | 5.04661 | 34025 ft | 444 kts | 330° |
| 2026-05-03 21:02 | 46.17308 | 5.01108 | 34018 ft | 444 kts | 330° |
| 2026-05-03 21:03 | 46.22956 | 4.97499 | 34013 ft | 444 kts | 330° |
| 2026-05-03 21:03 | 46.28602 | 4.93887 | 34026 ft | 445 kts | 330° |
| 2026-05-03 21:04 | 46.33349 | 4.90841 | 34016 ft | 445 kts | 330° |
| 2026-05-03 21:04 | 46.39005 | 4.87211 | 34011 ft | 445 kts | 330° |
| 2026-05-03 21:05 | 46.44663 | 4.83571 | 34008 ft | 445 kts | 330° |
| 2026-05-03 21:05 | 46.50287 | 4.79929 | 34024 ft | 447 kts | 330° |
| 2026-05-03 21:06 | 46.56015 | 4.76233 | 34009 ft | 447 kts | 330° |
| 2026-05-03 21:06 | 46.61662 | 4.72568 | 34006 ft | 447 kts | 330° |
| 2026-05-03 21:07 | 46.67350 | 4.68880 | 34004 ft | 447 kts | 330° |
| 2026-05-03 21:07 | 46.73025 | 4.65173 | 34004 ft | 447 kts | 330° |
| 2026-05-03 21:08 | 46.78701 | 4.61469 | 34003 ft | 447 kts | 330° |
| 2026-05-03 21:08 | 46.84380 | 4.57775 | 34004 ft | 447 kts | 330° |
| 2026-05-03 21:09 | 46.90062 | 4.54075 | 34011 ft | 448 kts | 330° |
| 2026-05-03 21:09 | 46.95759 | 4.50359 | 34025 ft | 448 kts | 331° |
| 2026-05-03 21:10 | 47.01468 | 4.46627 | 34009 ft | 450 kts | 330° |
| 2026-05-03 21:10 | 47.07187 | 4.42900 | 34007 ft | 450 kts | 330° |
| 2026-05-03 21:11 | 47.12908 | 4.39147 | 34017 ft | 451 kts | 330° |
| 2026-05-03 21:11 | 47.18624 | 4.35350 | 34005 ft | 451 kts | 330° |
| 2026-05-03 21:12 | 47.24346 | 4.31570 | 33999 ft | 451 kts | 330° |
| 2026-05-03 21:12 | 47.30067 | 4.27783 | 34008 ft | 451 kts | 330° |
| 2026-05-03 21:13 | 47.35801 | 4.24011 | 34009 ft | 451 kts | 330° |
| 2026-05-03 21:13 | 47.41488 | 4.20244 | 33984 ft | 449 kts | 327° |
| 2026-05-03 21:14 | 47.46728 | 4.15389 | 34020 ft | 443 kts | 320° |
| 2026-05-03 21:14 | 47.51811 | 4.10467 | 33999 ft | 434 kts | 320° |
| 2026-05-03 21:15 | 47.56871 | 4.05678 | 33996 ft | 430 kts | 319° |
| 2026-05-03 21:15 | 47.61917 | 4.00917 | 33994 ft | 430 kts | 320° |
| 2026-05-03 21:16 | 47.66942 | 3.96103 | 33988 ft | 430 kts | 319° |
| 2026-05-03 21:16 | 47.71952 | 3.91297 | 33990 ft | 430 kts | 319° |
| 2026-05-03 21:17 | 47.76183 | 3.87267 | 33987 ft | 430 kts | 319° |
| 2026-05-03 21:17 | 47.82039 | 3.81725 | 33986 ft | 429 kts | 319° |
| 2026-05-03 21:18 | 47.87068 | 3.76919 | 33983 ft | 429 kts | 319° |
| 2026-05-03 21:18 | 47.92078 | 3.72074 | 33979 ft | 429 kts | 319° |
| 2026-05-03 21:19 | 47.97096 | 3.67258 | 33986 ft | 430 kts | 319° |
| 2026-05-03 21:19 | 48.02122 | 3.62438 | 33978 ft | 430 kts | 319° |
| 2026-05-03 21:20 | 48.07159 | 3.57595 | 33977 ft | 430 kts | 319° |
| 2026-05-03 21:20 | 48.12174 | 3.52734 | 33975 ft | 429 kts | 319° |
| 2026-05-03 21:21 | 48.17174 | 3.47847 | 33972 ft | 430 kts | 319° |
| 2026-05-03 21:21 | 48.22181 | 3.42952 | 33971 ft | 430 kts | 319° |
| 2026-05-03 21:22 | 48.27208 | 3.38035 | 33975 ft | 433 kts | 319° |
| 2026-05-03 21:22 | 48.32271 | 3.33082 | 33970 ft | 434 kts | 319° |
| 2026-05-03 21:23 | 48.37301 | 3.28173 | 33965 ft | 434 kts | 319° |
| 2026-05-03 21:23 | 48.42356 | 3.23210 | 33958 ft | 434 kts | 318° |
| 2026-05-03 21:24 | 48.47414 | 3.18227 | 33965 ft | 434 kts | 318° |
| 2026-05-03 21:24 | 48.52453 | 3.13222 | 33961 ft | 434 kts | 318° |
| 2026-05-03 21:25 | 48.57502 | 3.08220 | 33960 ft | 434 kts | 318° |
| 2026-05-03 21:25 | 48.62540 | 3.03201 | 33989 ft | 434 kts | 318° |
| 2026-05-03 21:26 | 48.67612 | 2.98176 | 33964 ft | 437 kts | 318° |
| 2026-05-03 21:26 | 48.72709 | 2.93170 | 33953 ft | 437 kts | 318° |
| 2026-05-03 21:27 | 48.77795 | 2.88085 | 33953 ft | 437 kts | 317° |
| 2026-05-03 21:27 | 48.82868 | 2.83013 | 33954 ft | 436 kts | 317° |
| 2026-05-03 21:28 | 48.87923 | 2.77925 | 33960 ft | 436 kts | 317° |
| 2026-05-03 21:28 | 48.92953 | 2.72860 | 33964 ft | 436 kts | 317° |
| 2026-05-03 21:29 | 48.98017 | 2.67758 | 33963 ft | 436 kts | 317° |
| 2026-05-03 21:29 | 49.03068 | 2.62634 | 33989 ft | 437 kts | 317° |
| 2026-05-03 21:30 | 49.08131 | 2.57506 | 33972 ft | 442 kts | 317° |
| 2026-05-03 21:30 | 49.13292 | 2.52268 | 33965 ft | 444 kts | 317° |
| 2026-05-03 21:31 | 49.18407 | 2.47068 | 33961 ft | 444 kts | 317° |
| 2026-05-03 21:31 | 49.23539 | 2.41815 | 33946 ft | 443 kts | 317° |
| 2026-05-03 21:32 | 49.28655 | 2.36541 | 33949 ft | 444 kts | 317° |
| 2026-05-03 21:32 | 49.33818 | 2.31232 | 33942 ft | 445 kts | 317° |
| 2026-05-03 21:33 | 49.38933 | 2.25985 | 33935 ft | 445 kts | 317° |
| 2026-05-03 21:33 | 49.44069 | 2.20676 | 33949 ft | 448 kts | 316° |
| 2026-05-03 21:34 | 49.49258 | 2.15287 | 33939 ft | 451 kts | 317° |
| 2026-05-03 21:34 | 49.54472 | 2.09885 | 33942 ft | 451 kts | 317° |
| 2026-05-03 21:35 | 49.59712 | 2.04444 | 33934 ft | 451 kts | 317° |
| 2026-05-03 21:35 | 49.64888 | 1.99052 | 33932 ft | 451 kts | 317° |
| 2026-05-03 21:36 | 49.70080 | 1.93611 | 33932 ft | 451 kts | 317° |
| 2026-05-03 21:36 | 49.75271 | 1.88169 | 33940 ft | 451 kts | 317° |
| 2026-05-03 21:37 | 49.80434 | 1.82639 | 33937 ft | 451 kts | 316° |
| 2026-05-03 21:37 | 49.85605 | 1.77123 | 33942 ft | 453 kts | 317° |
| 2026-05-03 21:38 | 49.90852 | 1.71676 | 33936 ft | 454 kts | 318° |
| 2026-05-03 21:38 | 49.96091 | 1.66213 | 33941 ft | 453 kts | 317° |
| 2026-05-03 21:39 | 50.01291 | 1.60665 | 33934 ft | 453 kts | 317° |
| 2026-05-03 21:39 | 50.06485 | 1.55107 | 33935 ft | 453 kts | 318° |
| 2026-05-03 21:40 | 50.11682 | 1.49556 | 33931 ft | 453 kts | 317° |
| 2026-05-03 21:40 | 50.16885 | 1.43997 | 33933 ft | 453 kts | 318° |
| 2026-05-03 21:41 | 50.22074 | 1.38406 | 33940 ft | 453 kts | 318° |
| 2026-05-03 21:41 | 50.27279 | 1.32807 | 33958 ft | 455 kts | 319° |
| 2026-05-03 21:42 | 50.32494 | 1.27187 | 33928 ft | 455 kts | 318° |
| 2026-05-03 21:42 | 50.37692 | 1.21542 | 33947 ft | 455 kts | 318° |
| 2026-05-03 21:43 | 50.42862 | 1.15930 | 33935 ft | 455 kts | 319° |
| 2026-05-03 21:43 | 50.48061 | 1.10280 | 33932 ft | 454 kts | 319° |
| 2026-05-03 21:44 | 50.53170 | 1.04479 | 33932 ft | 451 kts | 315° |
| 2026-05-03 21:44 | 50.58098 | 0.98369 | 33932 ft | 451 kts | 315° |
| 2026-05-03 21:45 | 50.63015 | 0.92247 | 33948 ft | 451 kts | 315° |
| 2026-05-03 21:45 | 50.67951 | 0.86124 | 33931 ft | 451 kts | 316° |
| 2026-05-03 21:46 | 50.72880 | 0.79987 | 33926 ft | 451 kts | 316° |
| 2026-05-03 21:46 | 50.77784 | 0.73822 | 33927 ft | 451 kts | 316° |
| 2026-05-03 21:47 | 50.82697 | 0.67655 | 33923 ft | 451 kts | 315° |
| 2026-05-03 21:47 | 50.87597 | 0.61472 | 33947 ft | 451 kts | 316° |
| 2026-05-03 21:48 | 50.92514 | 0.55283 | 33957 ft | 450 kts | 316° |
| 2026-05-03 21:48 | 50.97415 | 0.49094 | 33979 ft | 451 kts | 316° |
| 2026-05-03 21:49 | 51.02303 | 0.42881 | 34006 ft | 450 kts | 316° |
| 2026-05-03 21:49 | 51.07190 | 0.36674 | 34016 ft | 450 kts | 316° |
| 2026-05-03 21:50 | 51.12070 | 0.30437 | 34021 ft | 450 kts | 316° |
| 2026-05-03 21:50 | 51.16129 | 0.25259 | 34015 ft | 450 kts | 316° |
| 2026-05-03 21:51 | 51.20973 | 0.19043 | 33993 ft | 444 kts | 316° |
| 2026-05-03 21:51 | 51.25773 | 0.12851 | 33978 ft | 447 kts | 316° |
| 2026-05-03 21:52 | 51.30583 | 0.06495 | 33956 ft | 446 kts | 310° |
| 2026-05-03 21:52 | 51.32556 | 0.02741 | 33936 ft | 438 kts | 297° |
| 2026-05-03 21:52 | 51.33916 | -0.01531 | 33849 ft | 423 kts | 285° |
| 2026-05-03 21:53 | 51.34774 | -0.05962 | 33528 ft | 411 kts | 280° |
| 2026-05-03 21:53 | 51.35481 | -0.10364 | 33263 ft | 406 kts | 279° |
| 2026-05-03 21:53 | 51.36154 | -0.14645 | 32992 ft | 404 kts | 279° |
| 2026-05-03 21:53 | 51.36849 | -0.18985 | 32726 ft | 402 kts | 280° |
| 2026-05-03 21:54 | 51.37562 | -0.23296 | 32401 ft | 400 kts | 280° |
| 2026-05-03 21:54 | 51.38278 | -0.27585 | 31984 ft | 396 kts | 280° |
| 2026-05-03 21:54 | 51.38980 | -0.31817 | 31531 ft | 393 kts | 280° |
| 2026-05-03 21:54 | 51.39678 | -0.36039 | 31058 ft | 391 kts | 280° |
| 2026-05-03 21:55 | 51.40371 | -0.40236 | 30594 ft | 389 kts | 280° |
| 2026-05-03 21:55 | 51.41056 | -0.44405 | 30156 ft | 386 kts | 280° |
| 2026-05-03 21:55 | 51.41729 | -0.48500 | 29680 ft | 384 kts | 280° |
| 2026-05-03 21:55 | 51.42413 | -0.52678 | 29135 ft | 382 kts | 280° |
| 2026-05-03 21:56 | 51.43091 | -0.56779 | 28651 ft | 379 kts | 280° |
| 2026-05-03 21:56 | 51.43757 | -0.60849 | 28198 ft | 376 kts | 280° |
| 2026-05-03 21:56 | 51.44415 | -0.64884 | 27751 ft | 373 kts | 280° |
| 2026-05-03 21:56 | 51.45062 | -0.68888 | 27310 ft | 369 kts | 280° |
| 2026-05-03 21:57 | 51.45702 | -0.72857 | 26852 ft | 367 kts | 280° |
| 2026-05-03 21:57 | 51.46332 | -0.76746 | 26416 ft | 365 kts | 280° |
| 2026-05-03 21:57 | 51.46964 | -0.80683 | 25975 ft | 363 kts | 280° |
| 2026-05-03 21:57 | 51.47590 | -0.84588 | 25539 ft | 360 kts | 280° |
| 2026-05-03 21:58 | 51.48218 | -0.88470 | 25126 ft | 358 kts | 280° |
| 2026-05-03 21:58 | 51.48844 | -0.92321 | 24703 ft | 356 kts | 280° |
| 2026-05-03 21:58 | 51.49458 | -0.96152 | 24275 ft | 355 kts | 280° |
| 2026-05-03 21:58 | 51.50073 | -0.99993 | 23830 ft | 354 kts | 280° |
| 2026-05-03 21:59 | 51.50681 | -1.03816 | 23387 ft | 353 kts | 280° |
| 2026-05-03 21:59 | 51.51291 | -1.07624 | 22900 ft | 352 kts | 280° |
| 2026-05-03 21:59 | 51.51897 | -1.11423 | 22450 ft | 349 kts | 280° |
| 2026-05-03 21:59 | 51.52486 | -1.15184 | 22031 ft | 345 kts | 280° |
| 2026-05-03 22:00 | 51.52980 | -1.18884 | 21880 ft | 335 kts | 277° |
| 2026-05-03 22:00 | 51.53419 | -1.22556 | 21871 ft | 335 kts | 277° |
| 2026-05-03 22:00 | 51.53847 | -1.26236 | 21887 ft | 335 kts | 277° |
| 2026-05-03 22:00 | 51.54275 | -1.29890 | 21849 ft | 330 kts | 277° |
| 2026-05-03 22:01 | 51.54704 | -1.33491 | 21372 ft | 327 kts | 277° |
| 2026-05-03 22:01 | 51.55129 | -1.37086 | 20859 ft | 327 kts | 277° |
| 2026-05-03 22:01 | 51.55553 | -1.40678 | 20337 ft | 327 kts | 277° |
| 2026-05-03 22:01 | 51.55971 | -1.44253 | 19870 ft | 325 kts | 277° |
| 2026-05-03 22:02 | 51.56383 | -1.47824 | 19412 ft | 324 kts | 277° |
| 2026-05-03 22:02 | 51.56795 | -1.51371 | 18941 ft | 323 kts | 277° |
| 2026-05-03 22:02 | 51.57207 | -1.54917 | 18476 ft | 322 kts | 277° |
| 2026-05-03 22:02 | 51.57618 | -1.58448 | 17972 ft | 321 kts | 277° |
| 2026-05-03 22:03 | 51.58031 | -1.61963 | 17467 ft | 319 kts | 278° |
| 2026-05-03 22:03 | 51.58428 | -1.65458 | 16987 ft | 316 kts | 276° |
| 2026-05-03 22:03 | 51.58704 | -1.68948 | 16508 ft | 314 kts | 274° |
| 2026-05-03 22:03 | 51.58951 | -1.72421 | 16063 ft | 311 kts | 274° |
| 2026-05-03 22:04 | 51.59195 | -1.75859 | 15621 ft | 308 kts | 274° |
| 2026-05-03 22:04 | 51.59435 | -1.79267 | 15187 ft | 306 kts | 274° |
| 2026-05-03 22:04 | 51.59679 | -1.82656 | 14753 ft | 304 kts | 274° |
| 2026-05-03 22:04 | 51.59880 | -1.86031 | 14302 ft | 301 kts | 266° |
| 2026-05-03 22:05 | 51.59492 | -1.89291 | 13839 ft | 296 kts | 249° |
| 2026-05-03 22:05 | 51.58768 | -1.92375 | 13357 ft | 294 kts | 246° |
| 2026-05-03 22:05 | 51.57847 | -1.95283 | 12867 ft | 292 kts | 237° |
| 2026-05-03 22:05 | 51.56761 | -1.98042 | 12357 ft | 290 kts | 236° |
| 2026-05-03 22:06 | 51.55659 | -2.00742 | 11679 ft | 288 kts | 235° |
| 2026-05-03 22:06 | 51.54542 | -2.03444 | 10898 ft | 294 kts | 235° |
| 2026-05-03 22:06 | 51.53427 | -2.06162 | 10274 ft | 295 kts | 236° |
| 2026-05-03 22:06 | 51.52284 | -2.08939 | 9802 ft | 291 kts | 235° |
| 2026-05-03 22:07 | 51.51196 | -2.11559 | 9460 ft | 282 kts | 235° |
| 2026-05-03 22:07 | 51.50124 | -2.14137 | 9148 ft | 272 kts | 235° |
| 2026-05-03 22:07 | 51.49095 | -2.16611 | 8934 ft | 261 kts | 235° |
| 2026-05-03 22:07 | 51.48090 | -2.19029 | 8375 ft | 262 kts | 235° |
| 2026-05-03 22:08 | 51.47062 | -2.21496 | 7838 ft | 263 kts | 235° |
| 2026-05-03 22:08 | 51.46060 | -2.23898 | 7356 ft | 262 kts | 235° |
| 2026-05-03 22:08 | 51.45049 | -2.26315 | 6883 ft | 260 kts | 235° |
| 2026-05-03 22:08 | 51.44042 | -2.28722 | 6423 ft | 259 kts | 235° |
| 2026-05-03 22:09 | 51.43043 | -2.31105 | 5984 ft | 255 kts | 235° |
| 2026-05-03 22:09 | 51.42074 | -2.33415 | 5651 ft | 245 kts | 235° |
| 2026-05-03 22:09 | 51.41142 | -2.35635 | 5324 ft | 235 kts | 235° |
| 2026-05-03 22:10 | 51.39672 | -2.39916 | 4774 ft | 207 kts | 254° |
| 2026-05-03 22:10 | 51.39437 | -2.42137 | 4431 ft | 200 kts | 263° |
| 2026-05-03 22:10 | 51.39342 | -2.44333 | 4048 ft | 195 kts | 265° |
| 2026-05-03 22:10 | 51.39257 | -2.46461 | 3677 ft | 191 kts | 266° |
| 2026-05-03 22:11 | 51.39174 | -2.48580 | 3387 ft | 187 kts | 266° |
| 2026-05-03 22:11 | 51.39094 | -2.50625 | 3124 ft | 182 kts | 266° |
| 2026-05-03 22:11 | 51.39017 | -2.52611 | 2865 ft | 175 kts | 266° |
| 2026-05-03 22:11 | 51.38943 | -2.54522 | 2635 ft | 170 kts | 266° |
| 2026-05-03 22:12 | 51.38870 | -2.56399 | 2417 ft | 169 kts | 266° |
| 2026-05-03 22:12 | 51.38798 | -2.58267 | 2195 ft | 168 kts | 266° |
| 2026-05-03 22:12 | 51.38726 | -2.60123 | 1987 ft | 163 kts | 266° |
| 2026-05-03 22:12 | 51.38660 | -2.61812 | 1793 ft | 144 kts | 266° |
| 2026-05-03 22:13 | 51.38599 | -2.63404 | 1579 ft | 143 kts | 266° |
| 2026-05-03 22:13 | 51.38537 | -2.64982 | 1368 ft | 142 kts | 266° |
| 2026-05-03 22:13 | 51.38477 | -2.66556 | 1167 ft | 141 kts | 266° |
| 2026-05-03 22:13 | 51.38416 | -2.68115 | 978 ft | 140 kts | 265° |
| 2026-05-03 22:14 | 51.38355 | -2.69672 | 782 ft | 140 kts | 265° |
| 2026-05-03 22:14 | 51.38296 | -2.71218 | 611 ft | 134 kts | 266° |
| 2026-05-03 22:14 | 51.38253 | -2.72303 | 635 ft | 67 kts | 266° |
| 2026-05-03 22:14 | 51.38226 | -2.72921 | 634 ft | 50 kts | 269° |
| 2026-05-03 22:15 | 51.38217 | -2.73268 | 635 ft | 21 kts | 290° |
| 2026-05-03 22:15 | 51.38302 | -2.73345 | 627 ft | 13 kts | 0° |
| 2026-05-03 22:15 | 51.38379 | -2.73268 | 620 ft | 14 kts | 63° |
| 2026-05-03 22:15 | 51.38392 | -2.73106 | 611 ft | 15 kts | 88° |
| 2026-05-03 22:16 | 51.38397 | -2.72927 | 617 ft | 17 kts | 86° |
| 2026-05-03 22:16 | 51.38404 | -2.72726 | 617 ft | 19 kts | 86° |
| 2026-05-03 22:16 | 51.38412 | -2.72504 | 624 ft | 21 kts | 86° |
| 2026-05-03 22:16 | 51.38422 | -2.72264 | 614 ft | 22 kts | 85° |
| 2026-05-03 22:17 | 51.38433 | -2.72013 | 611 ft | 23 kts | 91° |
| 2026-05-03 22:17 | 51.38433 | -2.71778 | 611 ft | 20 kts | 86° |
| 2026-05-03 22:17 | 51.38442 | -2.71556 | 624 ft | 20 kts | 86° |
| 2026-05-03 22:17 | 51.38448 | -2.71394 | 619 ft | 14 kts | 86° |
| 2026-05-03 22:18 | 51.38479 | -2.71345 | 622 ft | 6 kts | 356° |
| 2026-05-03 22:18 | 51.38502 | -2.71347 | 623 ft | 0 kts | 356° |
| 2026-05-03 22:18 | 51.38510 | -2.71348 | 625 ft | 2 kts | 358° |
| 2026-05-03 22:19 | 51.38522 | -2.71349 | 620 ft | 2 kts | 358° |
| 2026-05-03 22:19 | 51.38526 | -2.71349 | 624 ft | 0 kts | 358° |